Impacts TAF Board INFO
FOR SITUATIONAL AWARENESS. NOT TO BE USED FOR FLIGHT PLANNING PURPOSES.
IDs:

KATL - Atlanta/Hartsfield-J, GA, US

Issued at 0522 UTC 20 Nov 2017
Updated at 0731 UTC 20 Nov 2017
Potential Impact None Slight Moderate High
Time0652Z 20/08Z 20/09Z 20/10Z 20/11Z 20/12Z 20/13Z 20/14Z 20/15Z 20/16Z 20/17Z 20/18Z 20/19Z 20/20Z>>
Type OBS PRVL PRVL PRVL PRVL PRVL PRVL PRVL PRVL PRVL PRVL PRVL PRVL PRVL
VIS 10 >6 >6 >6 >6 >6 >6 >6 >6 >6 >6 >6 >6 >6
CIG -- -- -- -- -- -- -- -- -- -- -- -- -- --
Cover CLR SKC SKC SKC SKC SKC SKC SKC SKC SKC FEW FEW FEW FEW
FltCat VFR VFR VFR VFR VFR VFR VFR VFR VFR VFR VFR VFR VFR VFR
WX -- -- -- -- -- -- -- -- -- -- -- -- -- --
WDir 320 320 320 320 320 320 20 20 20 20 150 150 150 150
WSpd 8 7 7 7 7 7 4 4 4 4 6 6 6 6
WGst -- -- -- -- -- -- -- -- -- -- -- -- -- --

Raw TAF
KATL 200522Z 2006/2112 32007KT P6SM SKC
  FM201300 02004KT P6SM SKC
  FM201700 15006KT P6SM FEW250
  FM210300 11005KT P6SM SCT250
  FM210600 10004KT P6SM BKN030
  FM211000 11005KT P6SM BKN010 BKN030


Raw METAR
KATL 200652Z 32008KT 10SM CLR 02/M02 A3016 RMK AO2 SLP216 T00221022
KATL 200552Z 31006KT 10SM CLR 03/M02 A3016 RMK AO2 SLP218 T00281017 10083 20028 51011
KATL 200452Z 32006KT 10SM CLR 04/M01 A3016 RMK AO2 SLP216 T00391011 401390033

METAR Board
Radar Display
Forecast Discussion

FOR SITUATIONAL AWARENESS. NOT TO BE USED FOR FLIGHT PLANNING PURPOSES.